sensor_id;sensor_type;location;lat;lon;timestamp;pressure;altitude;pressure_sealevel;temperature;humidity
53270;BME280;39159;45.634;9.420;2023-03-14T00:01:16;98043.34;;;8.70;100.00
53270;BME280;39159;45.634;9.420;2023-03-14T00:03:43;98042.53;;;8.70;100.00
53270;BME280;39159;45.634;9.420;2023-03-14T00:06:09;98028.94;;;8.70;100.00
53270;BME280;39159;45.634;9.420;2023-03-14T00:08:35;98038.56;;;8.76;100.00
53270;BME280;39159;45.634;9.420;2023-03-14T00:11:05;98028.31;;;8.90;100.00
53270;BME280;39159;45.634;9.420;2023-03-14T00:13:31;98026.06;;;8.92;100.00
53270;BME280;39159;45.634;9.420;2023-03-14T00:16:04;98022.41;;;8.97;100.00
53270;BME280;39159;45.634;9.420;2023-03-14T00:18:30;98028.63;;;8.98;100.00
53270;BME280;39159;45.634;9.420;2023-03-14T00:21:00;98008.31;;;8.95;100.00
53270;BME280;39159;45.634;9.420;2023-03-14T00:23:27;97984.94;;;8.85;100.00
53270;BME280;39159;45.634;9.420;2023-03-14T00:25:53;97967.66;;;8.73;100.00
53270;BME280;39159;45.634;9.420;2023-03-14T00:28:19;97961.09;;;8.74;100.00
53270;BME280;39159;45.634;9.420;2023-03-14T00:30:44;97959.66;;;8.76;100.00
53270;BME280;39159;45.634;9.420;2023-03-14T00:33:09;97948.31;;;8.74;100.00
53270;BME280;39159;45.634;9.420;2023-03-14T00:35:35;97952.13;;;8.73;100.00
53270;BME280;39159;45.634;9.420;2023-03-14T00:38:00;97921.41;;;8.73;100.00
53270;BME280;39159;45.634;9.420;2023-03-14T00:40:26;97924.94;;;8.73;100.00
53270;BME280;39159;45.634;9.420;2023-03-14T00:42:51;97904.31;;;8.72;100.00
53270;BME280;39159;45.634;9.420;2023-03-14T00:45:17;97889.41;;;8.78;100.00
53270;BME280;39159;45.634;9.420;2023-03-14T00:47:42;97880.63;;;8.73;100.00
53270;BME280;39159;45.634;9.420;2023-03-14T00:50:11;97902.19;;;8.69;100.00
53270;BME280;39159;45.634;9.420;2023-03-14T00:52:36;97896.28;;;8.67;100.00
53270;BME280;39159;45.634;9.420;2023-03-14T00:55:02;97902.84;;;8.66;100.00
53270;BME280;39159;45.634;9.420;2023-03-14T00:57:28;97906.72;;;8.65;100.00
53270;BME280;39159;45.634;9.420;2023-03-14T00:59:53;97905.28;;;8.67;100.00
53270;BME280;39159;45.634;9.420;2023-03-14T01:02:19;97888.28;;;8.70;100.00
53270;BME280;39159;45.634;9.420;2023-03-14T01:04:47;97897.59;;;8.78;100.00
53270;BME280;39159;45.634;9.420;2023-03-14T01:07:12;97894.38;;;8.76;100.00
53270;BME280;39159;45.634;9.420;2023-03-14T01:09:38;97880.63;;;8.73;100.00
53270;BME280;39159;45.634;9.420;2023-03-14T01:12:03;97887.63;;;8.74;100.00
53270;BME280;39159;45.634;9.420;2023-03-14T01:14:29;97879.97;;;8.76;100.00
53270;BME280;39159;45.634;9.420;2023-03-14T01:16:54;97892.47;;;8.77;100.00
53270;BME280;39159;45.634;9.420;2023-03-14T01:19:26;97892.28;;;8.82;100.00
53270;BME280;39159;45.634;9.420;2023-03-14T01:21:52;97871.00;;;8.75;100.00
53270;BME280;39159;45.634;9.420;2023-03-14T01:24:18;97852.13;;;8.79;100.00
53270;BME280;39159;45.634;9.420;2023-03-14T01:26:43;97860.13;;;8.84;100.00
53270;BME280;39159;45.634;9.420;2023-03-14T01:29:09;97846.69;;;8.79;100.00
53270;BME280;39159;45.634;9.420;2023-03-14T01:31:34;97847.97;;;8.81;100.00
53270;BME280;39159;45.634;9.420;2023-03-14T01:33:59;97840.78;;;8.77;100.00
53270;BME280;39159;45.634;9.420;2023-03-14T01:36:25;97832.28;;;8.78;100.00
53270;BME280;39159;45.634;9.420;2023-03-14T01:38:50;97844.28;;;8.77;100.00
53270;BME280;39159;45.634;9.420;2023-03-14T01:41:19;97828.91;;;8.81;100.00
53270;BME280;39159;45.634;9.420;2023-03-14T01:43:45;97832.13;;;8.83;100.00
53270;BME280;39159;45.634;9.420;2023-03-14T01:46:26;97824.09;;;8.87;100.00
53270;BME280;39159;45.634;9.420;2023-03-14T01:49:24;97803.47;;;8.86;100.00
53270;BME280;39159;45.634;9.420;2023-03-14T01:54:39;97790.00;;;8.89;100.00
53270;BME280;39159;45.634;9.420;2023-03-14T01:57:14;97784.09;;;8.87;100.00
53270;BME280;39159;45.634;9.420;2023-03-14T01:59:46;97778.19;;;8.85;100.00
53270;BME280;39159;45.634;9.420;2023-03-14T02:02:13;97773.84;;;8.84;100.00
53270;BME280;39159;45.634;9.420;2023-03-14T02:04:40;97758.47;;;8.88;100.00
53270;BME280;39159;45.634;9.420;2023-03-14T02:07:15;97758.78;;;8.87;100.00
53270;BME280;39159;45.634;9.420;2023-03-14T02:09:43;97766.94;;;8.87;100.00
53270;BME280;39159;45.634;9.420;2023-03-14T02:12:11;97763.13;;;8.88;100.00
53270;BME280;39159;45.634;9.420;2023-03-14T02:14:37;97730.66;;;8.83;100.00
53270;BME280;39159;45.634;9.420;2023-03-14T02:17:05;97728.72;;;8.83;100.00
53270;BME280;39159;45.634;9.420;2023-03-14T02:22:35;97705.56;;;8.77;100.00
53270;BME280;39159;45.634;9.420;2023-03-14T02:25:08;97703.63;;;8.78;100.00
53270;BME280;39159;45.634;9.420;2023-03-14T02:27:36;97690.03;;;8.78;100.00
53270;BME280;39159;45.634;9.420;2023-03-14T02:30:12;97688.13;;;8.78;100.00
53270;BME280;39159;45.634;9.420;2023-03-14T02:32:42;97682.22;;;8.76;100.00
53270;BME280;39159;45.634;9.420;2023-03-14T02:35:11;97685.84;;;8.80;100.00
53270;BME280;39159;45.634;9.420;2023-03-14T02:37:49;97672.25;;;8.80;100.00
53270;BME280;39159;45.634;9.420;2023-03-14T02:40:16;97679.09;;;8.86;100.00
53270;BME280;39159;45.634;9.420;2023-03-14T02:42:41;97662.00;;;8.86;100.00
53270;BME280;39159;45.634;9.420;2023-03-14T02:47:33;97651.91;;;8.86;100.00
53270;BME280;39159;45.634;9.420;2023-03-14T02:50:03;97650.44;;;8.89;100.00
53270;BME280;39159;45.634;9.420;2023-03-14T02:52:29;97650.91;;;8.91;100.00
53270;BME280;39159;45.634;9.420;2023-03-14T02:54:55;97675.88;;;8.93;100.00
53270;BME280;39159;45.634;9.420;2023-03-14T02:57:20;97660.81;;;8.96;100.00
53270;BME280;39159;45.634;9.420;2023-03-14T02:59:46;97672.97;;;8.98;100.00
53270;BME280;39159;45.634;9.420;2023-03-14T03:02:11;97641.13;;;8.99;100.00
53270;BME280;39159;45.634;9.420;2023-03-14T03:04:37;97638.50;;;9.02;100.00
53270;BME280;39159;45.634;9.420;2023-03-14T03:07:02;97644.44;;;9.04;100.00
53270;BME280;39159;45.634;9.420;2023-03-14T03:09:27;97645.69;;;9.07;100.00
53270;BME280;39159;45.634;9.420;2023-03-14T03:11:53;97652.59;;;9.04;100.00
53270;BME280;39159;45.634;9.420;2023-03-14T03:14:18;97645.69;;;9.07;100.00
53270;BME280;39159;45.634;9.420;2023-03-14T03:16:44;97642.66;;;9.08;100.00
53270;BME280;39159;45.634;9.420;2023-03-14T03:19:09;97651.75;;;9.12;100.00
53270;BME280;39159;45.634;9.420;2023-03-14T03:21:35;97650.50;;;9.10;100.00
53270;BME280;39159;45.634;9.420;2023-03-14T03:24:00;97646.31;;;9.12;100.00
53270;BME280;39159;45.634;9.420;2023-03-14T03:26:26;97648.34;;;9.16;100.00
53270;BME280;39159;45.634;9.420;2023-03-14T03:28:51;97658.13;;;9.17;100.00
53270;BME280;39159;45.634;9.420;2023-03-14T03:31:17;97657.34;;;9.16;100.00
53270;BME280;39159;45.634;9.420;2023-03-14T03:33:43;97646.63;;;9.11;100.00
53270;BME280;39159;45.634;9.420;2023-03-14T03:36:09;97648.09;;;9.08;100.00
53270;BME280;39159;45.634;9.420;2023-03-14T03:38:35;97640.06;;;9.12;100.00
53270;BME280;39159;45.634;9.420;2023-03-14T03:41:07;97627.94;;;9.09;100.00
53270;BME280;39159;45.634;9.420;2023-03-14T03:43:32;97636.88;;;9.10;100.00
53270;BME280;39159;45.634;9.420;2023-03-14T03:45:58;97624.84;;;9.11;100.00
53270;BME280;39159;45.634;9.420;2023-03-14T03:48:27;97606.94;;;9.10;100.00
53270;BME280;39159;45.634;9.420;2023-03-14T03:50:52;97591.41;;;9.10;100.00
53270;BME280;39159;45.634;9.420;2023-03-14T03:53:18;97582.13;;;9.11;100.00
53270;BME280;39159;45.634;9.420;2023-03-14T03:55:43;97555.22;;;9.10;100.00
53270;BME280;39159;45.634;9.420;2023-03-14T03:58:09;97550.13;;;9.08;100.00
53270;BME280;39159;45.634;9.420;2023-03-14T04:00:34;97553.63;;;9.09;100.00
53270;BME280;39159;45.634;9.420;2023-03-14T04:03:00;97547.72;;;9.07;100.00
53270;BME280;39159;45.634;9.420;2023-03-14T04:05:25;97536.84;;;9.07;100.00
53270;BME280;39159;45.634;9.420;2023-03-14T04:07:51;97538.28;;;9.04;100.00
53270;BME280;39159;45.634;9.420;2023-03-14T04:10:16;97548.25;;;9.00;100.00
53270;BME280;39159;45.634;9.420;2023-03-14T04:12:42;97557.56;;;8.99;100.00
53270;BME280;39159;45.634;9.420;2023-03-14T04:15:08;97547.19;;;8.92;100.00
53270;BME280;39159;45.634;9.420;2023-03-14T04:17:33;97541.28;;;8.90;100.00
53270;BME280;39159;45.634;9.420;2023-03-14T04:19:59;97544.22;;;8.85;100.00
53270;BME280;39159;45.634;9.420;2023-03-14T04:22:24;97577.50;;;8.82;100.00
53270;BME280;39159;45.634;9.420;2023-03-14T04:24:49;97613.69;;;8.83;100.00
53270;BME280;39159;45.634;9.420;2023-03-14T04:27:15;97622.16;;;8.81;100.00
53270;BME280;39159;45.634;9.420;2023-03-14T04:29:42;97629.19;;;8.82;100.00
53270;BME280;39159;45.634;9.420;2023-03-14T04:32:07;97648.09;;;8.79;100.00
53270;BME280;39159;45.634;9.420;2023-03-14T04:34:33;97663.75;;;8.82;100.00
53270;BME280;39159;45.634;9.420;2023-03-14T04:36:58;97683.13;;;8.80;100.00
53270;BME280;39159;45.634;9.420;2023-03-14T04:39:24;97696.22;;;8.87;100.00
53270;BME280;39159;45.634;9.420;2023-03-14T04:41:49;97704.72;;;8.85;100.00
53270;BME280;39159;45.634;9.420;2023-03-14T04:44:15;97700.91;;;8.78;100.00
53270;BME280;39159;45.634;9.420;2023-03-14T04:46:40;97682.06;;;8.73;100.00
53270;BME280;39159;45.634;9.420;2023-03-14T04:49:05;97658.28;;;8.61;100.00
53270;BME280;39159;45.634;9.420;2023-03-14T04:51:31;97679.69;;;8.62;100.00
53270;BME280;39159;45.634;9.420;2023-03-14T04:53:56;97675.97;;;8.67;100.00
53270;BME280;39159;45.634;9.420;2023-03-14T04:56:22;97653.78;;;8.65;100.00
53270;BME280;39159;45.634;9.420;2023-03-14T04:58:47;97621.03;;;8.53;100.00
53270;BME280;39159;45.634;9.420;2023-03-14T05:01:13;97612.28;;;8.38;100.00
53270;BME280;39159;45.634;9.420;2023-03-14T05:03:38;97592.66;;;8.24;100.00
53270;BME280;39159;45.634;9.420;2023-03-14T05:06:05;97581.63;;;8.20;100.00
53270;BME280;39159;45.634;9.420;2023-03-14T05:08:30;97590.13;;;8.19;100.00
53270;BME280;39159;45.634;9.420;2023-03-14T05:10:57;97601.47;;;8.21;100.00
53270;BME280;39159;45.634;9.420;2023-03-14T05:13:23;97604.50;;;8.19;100.00
53270;BME280;39159;45.634;9.420;2023-03-14T05:15:48;97579.25;;;8.19;100.00
53270;BME280;39159;45.634;9.420;2023-03-14T05:18:15;97559.09;;;8.20;100.00
53270;BME280;39159;45.634;9.420;2023-03-14T05:20:41;97529.19;;;8.20;100.00
53270;BME280;39159;45.634;9.420;2023-03-14T05:23:08;97506.50;;;8.16;100.00
53270;BME280;39159;45.634;9.420;2023-03-14T05:25:34;97510.09;;;8.07;100.00
53270;BME280;39159;45.634;9.420;2023-03-14T05:28:00;97514.84;;;8.10;100.00
53270;BME280;39159;45.634;9.420;2023-03-14T05:30:25;97516.00;;;8.09;100.00
53270;BME280;39159;45.634;9.420;2023-03-14T05:32:51;97507.19;;;8.13;100.00
53270;BME280;39159;45.634;9.420;2023-03-14T05:35:16;97490.56;;;8.14;100.00
53270;BME280;39159;45.634;9.420;2023-03-14T05:37:42;97453.81;;;8.08;100.00
53270;BME280;39159;45.634;9.420;2023-03-14T05:40:08;97462.81;;;8.00;100.00
53270;BME280;39159;45.634;9.420;2023-03-14T05:42:34;97432.91;;;8.00;100.00
53270;BME280;39159;45.634;9.420;2023-03-14T05:44:59;97377.84;;;7.91;100.00
53270;BME280;39159;45.634;9.420;2023-03-14T05:47:25;97334.28;;;7.87;100.00
53270;BME280;39159;45.634;9.420;2023-03-14T05:49:50;97390.19;;;7.88;100.00
53270;BME280;39159;45.634;9.420;2023-03-14T05:52:16;97452.50;;;7.84;100.00
53270;BME280;39159;45.634;9.420;2023-03-14T05:54:41;97481.72;;;7.87;100.00
53270;BME280;39159;45.634;9.420;2023-03-14T05:57:07;97511.44;;;7.84;100.00
53270;BME280;39159;45.634;9.420;2023-03-14T05:59:32;97536.19;;;7.91;100.00
53270;BME280;39159;45.634;9.420;2023-03-14T06:01:58;97542.75;;;7.90;100.00
53270;BME280;39159;45.634;9.420;2023-03-14T06:04:24;97555.66;;;7.93;100.00
53270;BME280;39159;45.634;9.420;2023-03-14T06:06:50;97572.75;;;8.02;100.00
53270;BME280;39159;45.634;9.420;2023-03-14T06:09:15;97580.25;;;8.05;100.00
53270;BME280;39159;45.634;9.420;2023-03-14T06:11:41;97586.16;;;8.07;100.00
53270;BME280;39159;45.634;9.420;2023-03-14T06:14:06;97577.34;;;8.10;100.00
53270;BME280;39159;45.634;9.420;2023-03-14T06:16:32;97582.78;;;8.10;100.00
53270;BME280;39159;45.634;9.420;2023-03-14T06:18:57;97589.84;;;8.12;100.00
53270;BME280;39159;45.634;9.420;2023-03-14T06:21:23;97594.13;;;8.13;100.00
53270;BME280;39159;45.634;9.420;2023-03-14T06:23:49;97607.41;;;8.14;100.00
53270;BME280;39159;45.634;9.420;2023-03-14T06:26:14;97608.34;;;8.18;100.00
53270;BME280;39159;45.634;9.420;2023-03-14T06:28:39;97606.25;;;8.24;100.00
53270;BME280;39159;45.634;9.420;2023-03-14T06:31:05;97599.03;;;8.28;100.00
53270;BME280;39159;45.634;9.420;2023-03-14T06:33:31;97594.88;;;8.30;100.00
53270;BME280;39159;45.634;9.420;2023-03-14T06:35:56;97590.38;;;8.35;100.00
53270;BME280;39159;45.634;9.420;2023-03-14T06:38:22;97583.00;;;8.35;100.00
53270;BME280;39159;45.634;9.420;2023-03-14T06:40:47;97587.84;;;8.29;100.00
53270;BME280;39159;45.634;9.420;2023-03-14T06:43:13;97590.88;;;8.28;100.00
53270;BME280;39159;45.634;9.420;2023-03-14T06:45:38;97591.34;;;8.30;100.00
53270;BME280;39159;45.634;9.420;2023-03-14T06:48:04;97591.47;;;8.42;100.00
53270;BME280;39159;45.634;9.420;2023-03-14T06:50:29;97590.06;;;8.36;100.00
53270;BME280;39159;45.634;9.420;2023-03-14T06:52:55;97587.81;;;8.38;100.00
53270;BME280;39159;45.634;9.420;2023-03-14T06:55:20;97589.91;;;8.41;100.00
53270;BME280;39159;45.634;9.420;2023-03-14T06:57:46;97599.63;;;8.42;100.00
53270;BME280;39159;45.634;9.420;2023-03-14T07:00:12;97591.03;;;8.32;100.00
53270;BME280;39159;45.634;9.420;2023-03-14T07:02:39;97585.25;;;8.33;100.00
53270;BME280;39159;45.634;9.420;2023-03-14T07:05:04;97589.91;;;8.33;100.00
53270;BME280;39159;45.634;9.420;2023-03-14T07:07:30;97589.91;;;8.33;100.00
53270;BME280;39159;45.634;9.420;2023-03-14T07:09:56;97595.03;;;8.34;100.00
53270;BME280;39159;45.634;9.420;2023-03-14T07:12:21;97595.81;;;8.35;100.00
53270;BME280;39159;45.634;9.420;2023-03-14T07:14:47;97596.59;;;8.35;100.00
53270;BME280;39159;45.634;9.420;2023-03-14T07:17:12;97607.94;;;8.37;100.00
53270;BME280;39159;45.634;9.420;2023-03-14T07:19:37;97614.53;;;8.45;100.00
53270;BME280;39159;45.634;9.420;2023-03-14T07:22:04;97608.41;;;8.48;100.00
53270;BME280;39159;45.634;9.420;2023-03-14T07:24:30;97599.59;;;8.51;100.00
53270;BME280;39159;45.634;9.420;2023-03-14T07:26:55;97599.28;;;8.53;100.00
53270;BME280;39159;45.634;9.420;2023-03-14T07:29:21;97604.34;;;8.63;100.00
53270;BME280;39159;45.634;9.420;2023-03-14T07:31:46;97612.16;;;8.64;100.00
53270;BME280;39159;45.634;9.420;2023-03-14T07:34:12;97610.25;;;8.65;100.00
53270;BME280;39159;45.634;9.420;2023-03-14T07:36:37;97610.88;;;8.70;100.00
53270;BME280;39159;45.634;9.420;2023-03-14T07:39:03;97614.09;;;8.64;100.00
53270;BME280;39159;45.634;9.420;2023-03-14T07:41:30;97610.72;;;8.67;100.00
53270;BME280;39159;45.634;9.420;2023-03-14T07:43:55;97609.75;;;8.71;100.00
53270;BME280;39159;45.634;9.420;2023-03-14T07:46:21;97603.19;;;8.73;100.00
53270;BME280;39159;45.634;9.420;2023-03-14T07:48:46;97600.13;;;8.74;100.00
53270;BME280;39159;45.634;9.420;2023-03-14T07:51:12;97607.16;;;8.75;100.00
53270;BME280;39159;45.634;9.420;2023-03-14T07:53:37;97615.13;;;8.80;100.00
53270;BME280;39159;45.634;9.420;2023-03-14T07:56:05;97624.72;;;8.78;100.00
53270;BME280;39159;45.634;9.420;2023-03-14T07:58:30;97632.09;;;8.77;100.00
53270;BME280;39159;45.634;9.420;2023-03-14T08:00:58;97634.16;;;8.80;100.00
53270;BME280;39159;45.634;9.420;2023-03-14T08:03:24;97646.38;;;8.74;100.00
53270;BME280;39159;45.634;9.420;2023-03-14T08:05:50;97635.06;;;8.63;100.00
53270;BME280;39159;45.634;9.420;2023-03-14T08:08:16;97627.41;;;8.57;100.00
53270;BME280;39159;45.634;9.420;2023-03-14T08:10:42;97629.19;;;8.53;100.00
53270;BME280;39159;45.634;9.420;2023-03-14T08:13:09;97641.31;;;8.55;100.00
53270;BME280;39159;45.634;9.420;2023-03-14T08:15:34;97635.06;;;8.63;100.00
53270;BME280;39159;45.634;9.420;2023-03-14T08:18:00;97637.38;;;8.74;100.00
53270;BME280;39159;45.634;9.420;2023-03-14T08:20:27;97633.47;;;8.92;100.00
53270;BME280;39159;45.634;9.420;2023-03-14T08:22:58;97618.81;;;9.26;100.00
53270;BME280;39159;45.634;9.420;2023-03-14T08:25:24;97619.94;;;9.46;100.00
53270;BME280;39159;45.634;9.420;2023-03-14T08:27:50;97625.53;;;9.50;100.00
53270;BME280;39159;45.634;9.420;2023-03-14T08:30:16;97639.88;;;9.59;100.00
53270;BME280;39159;45.634;9.420;2023-03-14T08:32:42;97634.91;;;9.61;100.00
53270;BME280;39159;45.634;9.420;2023-03-14T08:35:11;97628.59;;;9.69;100.00
53270;BME280;39159;45.634;9.420;2023-03-14T08:37:37;97626.28;;;9.71;100.00
53270;BME280;39159;45.634;9.420;2023-03-14T08:40:04;97629.91;;;9.63;100.00
53270;BME280;39159;45.634;9.420;2023-03-14T08:42:35;97629.78;;;9.60;100.00
53270;BME280;39159;45.634;9.420;2023-03-14T08:45:01;97629.44;;;9.61;100.00
53270;BME280;39159;45.634;9.420;2023-03-14T08:47:26;97631.88;;;9.75;100.00
53270;BME280;39159;45.634;9.420;2023-03-14T08:49:52;97628.59;;;9.69;100.00
53270;BME280;39159;45.634;9.420;2023-03-14T08:52:18;97625.84;;;9.69;100.00
53270;BME280;39159;45.634;9.420;2023-03-14T08:54:44;97629.97;;;9.54;100.00
53270;BME280;39159;45.634;9.420;2023-03-14T08:57:09;97623.00;;;9.66;100.00
53270;BME280;39159;45.634;9.420;2023-03-14T08:59:35;97620.44;;;9.82;100.00
53270;BME280;39159;45.634;9.420;2023-03-14T09:02:00;97610.31;;;10.15;100.00
53270;BME280;39159;45.634;9.420;2023-03-14T09:04:29;97618.91;;;10.39;100.00
53270;BME280;39159;45.634;9.420;2023-03-14T09:06:54;97624.50;;;10.54;100.00
53270;BME280;39159;45.634;9.420;2023-03-14T09:09:20;97621.88;;;10.70;100.00
53270;BME280;39159;45.634;9.420;2023-03-14T09:11:45;97618.56;;;10.89;100.00
53270;BME280;39159;45.634;9.420;2023-03-14T09:14:11;97620.81;;;11.12;100.00
53270;BME280;39159;45.634;9.420;2023-03-14T09:16:36;97616.25;;;11.16;100.00
53270;BME280;39159;45.634;9.420;2023-03-14T09:19:02;97616.16;;;11.12;100.00
53270;BME280;39159;45.634;9.420;2023-03-14T09:21:28;97618.44;;;11.51;100.00
53270;BME280;39159;45.634;9.420;2023-03-14T09:23:53;97619.47;;;11.58;100.00
53270;BME280;39159;45.634;9.420;2023-03-14T09:26:19;97619.00;;;11.56;100.00
53270;BME280;39159;45.634;9.420;2023-03-14T09:28:45;97612.38;;;11.57;100.00
53270;BME280;39159;45.634;9.420;2023-03-14T09:31:11;97606.88;;;11.41;100.00
53270;BME280;39159;45.634;9.420;2023-03-14T09:33:37;97607.59;;;11.26;100.00
53270;BME280;39159;45.634;9.420;2023-03-14T09:36:03;97596.00;;;11.57;100.00
53270;BME280;39159;45.634;9.420;2023-03-14T09:38:29;97597.56;;;11.87;100.00
53270;BME280;39159;45.634;9.420;2023-03-14T09:40:57;97606.66;;;12.19;100.00
53270;BME280;39159;45.634;9.420;2023-03-14T09:43:24;97594.56;;;12.68;100.00
53270;BME280;39159;45.634;9.420;2023-03-14T09:45:52;97599.31;;;12.71;100.00
53270;BME280;39159;45.634;9.420;2023-03-14T09:48:21;97589.13;;;13.22;100.00
53270;BME280;39159;45.634;9.420;2023-03-14T09:50:50;97584.00;;;13.56;100.00
53270;BME280;39159;45.634;9.420;2023-03-14T09:53:27;97585.06;;;13.52;100.00
53270;BME280;39159;45.634;9.420;2023-03-14T09:55:54;97592.66;;;13.58;100.00
53270;BME280;39159;45.634;9.420;2023-03-14T09:58:24;97586.28;;;13.93;100.00
53270;BME280;39159;45.634;9.420;2023-03-14T10:00:52;97585.81;;;13.48;100.00
53270;BME280;39159;45.634;9.420;2023-03-14T10:03:45;97583.66;;;13.03;100.00
53270;BME280;39159;45.634;9.420;2023-03-14T10:06:12;97578.00;;;12.96;100.00
53270;BME280;39159;45.634;9.420;2023-03-14T10:08:43;97581.84;;;12.75;100.00
53270;BME280;39159;45.634;9.420;2023-03-14T10:11:15;97571.91;;;13.22;100.00
53270;BME280;39159;45.634;9.420;2023-03-14T10:14:02;97562.72;;;12.95;100.00
53270;BME280;39159;45.634;9.420;2023-03-14T10:16:31;97575.22;;;12.76;100.00
53270;BME280;39159;45.634;9.420;2023-03-14T10:19:09;97566.72;;;12.81;100.00
53270;BME280;39159;45.634;9.420;2023-03-14T10:21:38;97571.50;;;12.69;100.00
53270;BME280;39159;45.634;9.420;2023-03-14T10:24:26;97570.91;;;13.11;100.00
53270;BME280;39159;45.634;9.420;2023-03-14T10:26:54;97575.50;;;13.42;100.00
53270;BME280;39159;45.634;9.420;2023-03-14T10:29:20;97559.16;;;13.88;100.00
53270;BME280;39159;45.634;9.420;2023-03-14T10:31:53;97561.94;;;14.57;100.00
53270;BME280;39159;45.634;9.420;2023-03-14T10:34:25;97563.41;;;14.78;100.00
53270;BME280;39159;45.634;9.420;2023-03-14T10:36:57;97568.81;;;15.27;100.00
53270;BME280;39159;45.634;9.420;2023-03-14T10:39:42;97560.31;;;15.09;100.00
53270;BME280;39159;45.634;9.420;2023-03-14T10:42:21;97563.38;;;14.74;100.00
53270;BME280;39159;45.634;9.420;2023-03-14T10:44:55;97557.72;;;14.17;100.00
53270;BME280;39159;45.634;9.420;2023-03-14T10:47:23;97547.53;;;14.18;100.00
53270;BME280;39159;45.634;9.420;2023-03-14T10:49:49;97546.59;;;14.56;100.00
53270;BME280;39159;45.634;9.420;2023-03-14T10:52:23;97541.72;;;14.46;100.00
53270;BME280;39159;45.634;9.420;2023-03-14T10:54:54;97539.84;;;13.81;100.00
53270;BME280;39159;45.634;9.420;2023-03-14T10:57:21;97536.13;;;13.93;100.00
53270;BME280;39159;45.634;9.420;2023-03-14T10:59:47;97531.00;;;14.37;100.00
53270;BME280;39159;45.634;9.420;2023-03-14T11:05:21;97530.41;;;15.01;100.00
53270;BME280;39159;45.634;9.420;2023-03-14T11:07:53;97528.91;;;14.80;100.00
53270;BME280;39159;45.634;9.420;2023-03-14T11:10:20;97529.94;;;14.68;100.00
53270;BME280;39159;45.634;9.420;2023-03-14T11:18:50;97533.81;;;14.41;100.00
53270;BME280;39159;45.634;9.420;2023-03-14T11:24:12;97540.56;;;15.00;100.00
53270;BME280;39159;45.634;9.420;2023-03-14T11:32:14;97532.75;;;15.66;95.17
53270;BME280;39159;45.634;9.420;2023-03-14T11:34:50;97534.88;;;15.80;96.05
53270;BME280;39159;45.634;9.420;2023-03-14T11:37:46;97528.16;;;16.15;87.46
53270;BME280;39159;45.634;9.420;2023-03-14T11:40:13;97532.66;;;15.93;87.25
53270;BME280;39159;45.634;9.420;2023-03-14T11:42:43;97534.81;;;15.39;89.50
53270;BME280;39159;45.634;9.420;2023-03-14T11:45:47;97537.09;;;15.03;91.73
53270;BME280;39159;45.634;9.420;2023-03-14T11:48:43;97530.44;;;14.78;96.49
53270;BME280;39159;45.634;9.420;2023-03-14T11:51:38;97519.53;;;14.55;96.54
53270;BME280;39159;45.634;9.420;2023-03-14T11:54:18;97521.47;;;14.54;98.03
53270;BME280;39159;45.634;9.420;2023-03-14T11:57:32;97514.25;;;14.69;99.34
53270;BME280;39159;45.634;9.420;2023-03-14T12:10:22;97500.34;;;14.58;98.01
53270;BME280;39159;45.634;9.420;2023-03-14T12:12:48;97496.75;;;14.54;98.08
53270;BME280;39159;45.634;9.420;2023-03-14T12:15:21;97495.41;;;14.44;95.92
53270;BME280;39159;45.634;9.420;2023-03-14T12:17:54;97489.03;;;14.37;98.05
53270;BME280;39159;45.634;9.420;2023-03-14T12:20:24;97481.75;;;14.21;97.31
53270;BME280;39159;45.634;9.420;2023-03-14T12:22:55;97480.31;;;14.31;100.00
53270;BME280;39159;45.634;9.420;2023-03-14T12:25:30;97480.16;;;14.47;99.66
53270;BME280;39159;45.634;9.420;2023-03-14T12:35:49;97466.66;;;15.22;95.86
53270;BME280;39159;45.634;9.420;2023-03-14T12:43:42;97447.09;;;14.93;93.55
53270;BME280;39159;45.634;9.420;2023-03-14T12:46:27;97441.72;;;14.74;89.20
53270;BME280;39159;45.634;9.420;2023-03-14T12:51:40;97424.00;;;14.98;87.17
53270;BME280;39159;45.634;9.420;2023-03-14T12:57:33;97425.09;;;15.27;88.54
53270;BME280;39159;45.634;9.420;2023-03-14T12:59:59;97422.84;;;15.73;86.72
53270;BME280;39159;45.634;9.420;2023-03-14T13:02:37;97413.63;;;16.00;82.98
53270;BME280;39159;45.634;9.420;2023-03-14T13:05:25;97407.25;;;16.44;82.11
53270;BME280;39159;45.634;9.420;2023-03-14T13:10:23;97391.50;;;16.44;78.07
53270;BME280;39159;45.634;9.420;2023-03-14T13:15:23;97402.25;;;16.05;79.45
53270;BME280;39159;45.634;9.420;2023-03-14T13:17:51;97403.00;;;15.98;82.30
53270;BME280;39159;45.634;9.420;2023-03-14T13:20:31;97397.31;;;15.73;80.89
53270;BME280;39159;45.634;9.420;2023-03-14T13:22:58;97402.03;;;15.76;84.63
53270;BME280;39159;45.634;9.420;2023-03-14T13:25:23;97402.44;;;15.74;78.84
53270;BME280;39159;45.634;9.420;2023-03-14T13:27:52;97398.50;;;15.75;73.90
53270;BME280;39159;45.634;9.420;2023-03-14T13:30:20;97403.47;;;15.63;75.76
53270;BME280;39159;45.634;9.420;2023-03-14T13:32:48;97399.41;;;15.49;80.54
53270;BME280;39159;45.634;9.420;2023-03-14T13:36:01;97400.47;;;15.34;86.50
53270;BME280;39159;45.634;9.420;2023-03-14T13:38:16;97403.94;;;15.31;83.08
53270;BME280;39159;45.634;9.420;2023-03-14T13:40:43;97396.00;;;15.22;81.65
53270;BME280;39159;45.634;9.420;2023-03-14T13:43:29;97397.72;;;15.00;84.21
53270;BME280;39159;45.634;9.420;2023-03-14T13:46:25;97391.72;;;14.91;86.94
53270;BME280;39159;45.634;9.420;2023-03-14T13:48:55;97395.31;;;14.95;86.10
53270;BME280;39159;45.634;9.420;2023-03-14T13:51:22;97397.34;;;15.02;83.06
53270;BME280;39159;45.634;9.420;2023-03-14T13:53:52;97386.84;;;15.07;84.99
53270;BME280;39159;45.634;9.420;2023-03-14T13:56:24;97383.06;;;14.85;84.62
53270;BME280;39159;45.634;9.420;2023-03-14T13:58:50;97381.03;;;14.82;85.91
53270;BME280;39159;45.634;9.420;2023-03-14T14:01:19;97372.63;;;14.68;89.45
53270;BME280;39159;45.634;9.420;2023-03-14T14:03:50;97368.41;;;14.74;88.91